sensor_id;sensor_type;location;lat;lon;timestamp;pressure;altitude;pressure_sealevel;temperature;humidity
75192;BME280;63771;52.580;9.734;2022-12-18T00:00:56;102692.44;;;-7.83;89.21
75192;BME280;63771;52.580;9.734;2022-12-18T00:03:22;102688.84;;;-7.90;89.09
75192;BME280;63771;52.580;9.734;2022-12-18T00:05:51;102702.34;;;-7.83;89.39
75192;BME280;63771;52.580;9.734;2022-12-18T00:08:18;102696.22;;;-7.85;89.00
75192;BME280;63771;52.580;9.734;2022-12-18T00:10:44;102692.44;;;-7.83;89.10
75192;BME280;63771;52.580;9.734;2022-12-18T00:13:10;102695.09;;;-7.92;88.95
75192;BME280;63771;52.580;9.734;2022-12-18T00:15:36;102698.09;;;-7.89;88.89
75192;BME280;63771;52.580;9.734;2022-12-18T00:18:02;102699.66;;;-7.89;88.78
75192;BME280;63771;52.580;9.734;2022-12-18T00:20:28;102714.47;;;-7.85;88.96
75192;BME280;63771;52.580;9.734;2022-12-18T00:22:53;102715.38;;;-7.84;89.17
75192;BME280;63771;52.580;9.734;2022-12-18T00:25:19;102720.97;;;-7.85;89.34
75192;BME280;63771;52.580;9.734;2022-12-18T00:27:45;102717.22;;;-7.83;89.14
75192;BME280;63771;52.580;9.734;2022-12-18T00:30:10;102717.22;;;-7.83;89.22
75192;BME280;63771;52.580;9.734;2022-12-18T00:32:36;102714.13;;;-7.82;89.29
75192;BME280;63771;52.580;9.734;2022-12-18T00:35:02;102711.00;;;-7.81;89.50
75192;BME280;63771;52.580;9.734;2022-12-18T00:37:28;102713.75;;;-7.80;89.47
75192;BME280;63771;52.580;9.734;2022-12-18T00:39:54;102713.47;;;-7.81;89.40
75192;BME280;63771;52.580;9.734;2022-12-18T00:42:19;102719.63;;;-7.79;89.40
75192;BME280;63771;52.580;9.734;2022-12-18T00:45:03;102733.22;;;-7.77;89.39
75192;BME280;63771;52.580;9.734;2022-12-18T00:47:28;102733.22;;;-7.77;89.96
75192;BME280;63771;52.580;9.734;2022-12-18T00:49:53;102729.19;;;-7.77;89.54
75192;BME280;63771;52.580;9.734;2022-12-18T00:52:19;102727.63;;;-7.76;89.45
75192;BME280;63771;52.580;9.734;2022-12-18T00:54:44;102725.16;;;-7.76;89.58
75192;BME280;63771;52.580;9.734;2022-12-18T00:57:09;102716.50;;;-7.78;89.60
75192;BME280;63771;52.580;9.734;2022-12-18T00:59:35;102723.94;;;-7.78;89.53
75192;BME280;63771;52.580;9.734;2022-12-18T01:02:00;102718.97;;;-7.78;89.30
75192;BME280;63771;52.580;9.734;2022-12-18T01:04:25;102719.63;;;-7.79;89.35
75192;BME280;63771;52.580;9.734;2022-12-18T01:06:51;102719.63;;;-7.79;89.55
75192;BME280;63771;52.580;9.734;2022-12-18T01:09:16;102720.28;;;-7.80;89.23
75192;BME280;63771;52.580;9.734;2022-12-18T01:11:41;102716.22;;;-7.80;89.66
75192;BME280;63771;52.580;9.734;2022-12-18T01:14:07;102721.19;;;-7.80;89.44
75192;BME280;63771;52.580;9.734;2022-12-18T01:16:32;102713.75;;;-7.80;89.63
75192;BME280;63771;52.580;9.734;2022-12-18T01:18:57;102712.25;;;-7.83;89.75
75192;BME280;63771;52.580;9.734;2022-12-18T01:21:23;102723.66;;;-7.80;89.66
75192;BME280;63771;52.580;9.734;2022-12-18T01:23:56;102734.47;;;-7.79;89.85
75192;BME280;63771;52.580;9.734;2022-12-18T01:26:22;102706.81;;;-7.91;89.75
75192;BME280;63771;52.580;9.734;2022-12-18T01:28:48;102726.56;;;-7.86;89.75
75192;BME280;63771;52.580;9.734;2022-12-18T01:31:28;102738.25;;;-7.81;89.41
75192;BME280;63771;52.580;9.734;2022-12-18T01:33:54;102734.53;;;-7.83;89.62
75192;BME280;63771;52.580;9.734;2022-12-18T01:36:25;102737.03;;;-7.83;89.50
75192;BME280;63771;52.580;9.734;2022-12-18T01:38:51;102719.78;;;-7.88;89.60
75192;BME280;63771;52.580;9.734;2022-12-18T01:41:21;102729.69;;;-7.88;89.72
75192;BME280;63771;52.580;9.734;2022-12-18T01:43:50;102716.44;;;-7.92;89.49
75192;BME280;63771;52.580;9.734;2022-12-18T01:46:17;102721.69;;;-7.91;89.61
75192;BME280;63771;52.580;9.734;2022-12-18T01:48:45;102723.22;;;-7.91;89.59
75192;BME280;63771;52.580;9.734;2022-12-18T01:51:12;102726.03;;;-7.94;89.68
75192;BME280;63771;52.580;9.734;2022-12-18T01:53:39;102748.34;;;-7.94;89.74
75192;BME280;63771;52.580;9.734;2022-12-18T01:56:05;102747.13;;;-7.96;89.37
75192;BME280;63771;52.580;9.734;2022-12-18T01:58:59;102745.94;;;-7.98;89.43
75192;BME280;63771;52.580;9.734;2022-12-18T02:01:23;102753.06;;;-7.99;89.66
75192;BME280;63771;52.580;9.734;2022-12-18T02:03:49;102749.72;;;-8.04;89.62
75192;BME280;63771;52.580;9.734;2022-12-18T02:06:20;102750.97;;;-8.02;89.70
75192;BME280;63771;52.580;9.734;2022-12-18T02:09:02;102749.41;;;-8.01;89.52
75192;BME280;63771;52.580;9.734;2022-12-18T02:11:57;102755.28;;;-8.01;89.58
75192;BME280;63771;52.580;9.734;2022-12-18T02:14:40;102759.63;;;-8.04;89.46
75192;BME280;63771;52.580;9.734;2022-12-18T02:17:16;102751.59;;;-8.03;89.46
75192;BME280;63771;52.580;9.734;2022-12-18T02:27:49;102739.28;;;-8.07;89.48
75192;BME280;63771;52.580;9.734;2022-12-18T02:30:16;102744.88;;;-8.08;89.85
75192;BME280;63771;52.580;9.734;2022-12-18T02:32:46;102752.28;;;-8.08;89.69
75192;BME280;63771;52.580;9.734;2022-12-18T02:35:16;102748.59;;;-8.10;89.66
75192;BME280;63771;52.580;9.734;2022-12-18T02:37:43;102743.03;;;-8.09;89.63
75192;BME280;63771;52.580;9.734;2022-12-18T02:40:12;102745.50;;;-8.09;89.76
75192;BME280;63771;52.580;9.734;2022-12-18T02:42:38;102731.69;;;-8.17;89.82
75192;BME280;63771;52.580;9.734;2022-12-18T02:45:04;102734.66;;;-8.09;89.91
75192;BME280;63771;52.580;9.734;2022-12-18T02:47:32;102723.84;;;-8.10;89.86
75192;BME280;63771;52.580;9.734;2022-12-18T02:50:14;102730.06;;;-8.12;89.60
75192;BME280;63771;52.580;9.734;2022-12-18T03:03:55;102733.19;;;-8.13;89.80
75192;BME280;63771;52.580;9.734;2022-12-18T03:06:28;102735.03;;;-8.12;89.80
75192;BME280;63771;52.580;9.734;2022-12-18T03:09:06;102729.50;;;-8.15;89.65
75192;BME280;63771;52.580;9.734;2022-12-18T03:11:34;102719.94;;;-8.18;89.73
75192;BME280;63771;52.580;9.734;2022-12-18T03:14:21;102726.41;;;-8.14;89.61
75192;BME280;63771;52.580;9.734;2022-12-18T03:16:49;102726.41;;;-8.14;89.69
75192;BME280;63771;52.580;9.734;2022-12-18T03:19:22;102722.06;;;-8.15;89.75
75192;BME280;63771;52.580;9.734;2022-12-18T03:21:54;102717.75;;;-8.16;89.59
75192;BME280;63771;52.580;9.734;2022-12-18T03:24:22;102717.75;;;-8.16;89.61
75192;BME280;63771;52.580;9.734;2022-12-18T03:26:54;102715.00;;;-8.18;89.44
75192;BME280;63771;52.580;9.734;2022-12-18T03:29:26;102715.00;;;-8.18;89.59
75192;BME280;63771;52.580;9.734;2022-12-18T03:31:55;102719.38;;;-8.21;89.55
75192;BME280;63771;52.580;9.734;2022-12-18T03:34:24;102729.22;;;-8.17;89.64
75192;BME280;63771;52.580;9.734;2022-12-18T03:36:52;102734.81;;;-8.18;89.79
75192;BME280;63771;52.580;9.734;2022-12-18T03:39:19;102734.53;;;-8.19;89.46
75192;BME280;63771;52.580;9.734;2022-12-18T03:41:51;102729.59;;;-8.19;89.60
75192;BME280;63771;52.580;9.734;2022-12-18T03:44:23;102726.78;;;-8.21;89.55
75192;BME280;63771;52.580;9.734;2022-12-18T03:47:03;102737.97;;;-8.23;89.45
75192;BME280;63771;52.580;9.734;2022-12-18T03:49:36;102722.31;;;-8.31;89.20
75192;BME280;63771;52.580;9.734;2022-12-18T03:52:09;102735.91;;;-8.29;89.16
75192;BME280;63771;52.580;9.734;2022-12-18T03:54:36;102732.03;;;-8.37;88.80
75192;BME280;63771;52.580;9.734;2022-12-18T03:57:07;102731.38;;;-8.36;89.07
75192;BME280;63771;52.580;9.734;2022-12-18T03:59:35;102729.31;;;-8.43;89.01
75192;BME280;63771;52.580;9.734;2022-12-18T04:02:01;102742.91;;;-8.41;89.16
75192;BME280;63771;52.580;9.734;2022-12-18T04:04:28;102741.41;;;-8.44;89.02
75192;BME280;63771;52.580;9.734;2022-12-18T04:06:55;102740.19;;;-8.46;88.79
75192;BME280;63771;52.580;9.734;2022-12-18T04:09:22;102749.25;;;-8.51;89.00
75192;BME280;63771;52.580;9.734;2022-12-18T04:11:48;102752.00;;;-8.49;88.85
75192;BME280;63771;52.580;9.734;2022-12-18T04:14:13;102750.50;;;-8.53;88.69
75192;BME280;63771;52.580;9.734;2022-12-18T04:16:39;102749.94;;;-8.56;89.27
75192;BME280;63771;52.580;9.734;2022-12-18T04:19:04;102751.19;;;-8.58;88.98
75192;BME280;63771;52.580;9.734;2022-12-18T04:21:30;102750.63;;;-8.61;89.33
75192;BME280;63771;52.580;9.734;2022-12-18T04:23:55;102760.16;;;-8.58;89.10
75192;BME280;63771;52.580;9.734;2022-12-18T04:26:20;102747.50;;;-8.60;89.14
75192;BME280;63771;52.580;9.734;2022-12-18T04:28:46;102741.97;;;-8.63;89.22
75192;BME280;63771;52.580;9.734;2022-12-18T04:31:12;102729.66;;;-8.67;88.76
75192;BME280;63771;52.580;9.734;2022-12-18T04:33:37;102737.41;;;-8.65;89.03
75192;BME280;63771;52.580;9.734;2022-12-18T04:36:03;102741.75;;;-8.69;89.14
75192;BME280;63771;52.580;9.734;2022-12-18T04:38:29;102740.81;;;-8.69;89.04
75192;BME280;63771;52.580;9.734;2022-12-18T04:40:54;102739.63;;;-8.71;89.05
75192;BME280;63771;52.580;9.734;2022-12-18T04:43:19;102731.63;;;-8.74;89.24
75192;BME280;63771;52.580;9.734;2022-12-18T04:45:45;102730.13;;;-8.78;89.44
75192;BME280;63771;52.580;9.734;2022-12-18T04:48:10;102727.97;;;-8.76;89.52
75192;BME280;63771;52.580;9.734;2022-12-18T04:50:35;102723.94;;;-8.76;89.40
75192;BME280;63771;52.580;9.734;2022-12-18T04:53:01;102712.53;;;-8.79;89.14
75192;BME280;63771;52.580;9.734;2022-12-18T04:55:27;102724.88;;;-8.79;89.35
75192;BME280;63771;52.580;9.734;2022-12-18T04:57:52;102732.03;;;-8.81;89.34
75192;BME280;63771;52.580;9.734;2022-12-18T05:00:18;102727.72;;;-8.82;89.32
75192;BME280;63771;52.580;9.734;2022-12-18T05:02:43;102724.94;;;-8.83;89.46
75192;BME280;63771;52.580;9.734;2022-12-18T05:05:09;102723.75;;;-8.85;89.35
75192;BME280;63771;52.580;9.734;2022-12-18T05:07:35;102740.41;;;-8.84;89.24
75192;BME280;63771;52.580;9.734;2022-12-18T05:10:00;102741.69;;;-8.86;89.32
75192;BME280;63771;52.580;9.734;2022-12-18T05:12:26;102745.06;;;-8.86;89.33
75192;BME280;63771;52.580;9.734;2022-12-18T05:14:51;102743.84;;;-8.88;89.13
75192;BME280;63771;52.580;9.734;2022-12-18T05:17:17;102744.47;;;-8.89;89.69
75192;BME280;63771;52.580;9.734;2022-12-18T05:19:42;102748.50;;;-8.89;89.84
75192;BME280;63771;52.580;9.734;2022-12-18T05:22:08;102755.91;;;-8.89;89.79
75192;BME280;63771;52.580;9.734;2022-12-18T05:24:34;102758.41;;;-8.89;90.07
75192;BME280;63771;52.580;9.734;2022-12-18T05:26:59;102755.91;;;-8.89;89.86
75192;BME280;63771;52.580;9.734;2022-12-18T05:29:24;102767.38;;;-8.90;90.15
75192;BME280;63771;52.580;9.734;2022-12-18T05:31:50;102760.88;;;-8.89;89.93
75192;BME280;63771;52.580;9.734;2022-12-18T05:34:15;102765.81;;;-8.89;89.72
75192;BME280;63771;52.580;9.734;2022-12-18T05:36:40;102751.66;;;-8.95;89.70
75192;BME280;63771;52.580;9.734;2022-12-18T05:39:06;102768.91;;;-8.90;89.79
75192;BME280;63771;52.580;9.734;2022-12-18T05:41:31;102768.63;;;-8.92;90.13
75192;BME280;63771;52.580;9.734;2022-12-18T05:43:58;102757.25;;;-8.96;90.01
75192;BME280;63771;52.580;9.734;2022-12-18T05:46:23;102768.63;;;-8.92;90.25
75192;BME280;63771;52.580;9.734;2022-12-18T05:48:49;102777.59;;;-8.92;90.29
75192;BME280;63771;52.580;9.734;2022-12-18T05:51:18;102782.56;;;-8.92;90.28
75192;BME280;63771;52.580;9.734;2022-12-18T05:53:44;102784.72;;;-8.94;90.12
75192;BME280;63771;52.580;9.734;2022-12-18T05:56:13;102781.03;;;-8.96;90.12
75192;BME280;63771;52.580;9.734;2022-12-18T05:58:40;102785.06;;;-8.97;90.18
75192;BME280;63771;52.580;9.734;2022-12-18T06:01:07;102781.69;;;-8.97;89.93
75192;BME280;63771;52.580;9.734;2022-12-18T06:03:33;102778.88;;;-8.99;90.03
75192;BME280;63771;52.580;9.734;2022-12-18T06:05:58;102775.84;;;-9.02;90.23
75192;BME280;63771;52.580;9.734;2022-12-18T06:08:24;102773.06;;;-9.03;90.21
75192;BME280;63771;52.580;9.734;2022-12-18T06:10:51;102767.84;;;-9.05;90.02
75192;BME280;63771;52.580;9.734;2022-12-18T06:13:18;102770.41;;;-9.13;90.03
75192;BME280;63771;52.580;9.734;2022-12-18T06:15:43;102779.00;;;-9.07;90.14
75192;BME280;63771;52.580;9.734;2022-12-18T06:18:08;102792.00;;;-9.08;89.97
75192;BME280;63771;52.580;9.734;2022-12-18T06:20:34;102798.44;;;-9.08;90.36
75192;BME280;63771;52.580;9.734;2022-12-18T06:23:01;102783.34;;;-9.10;90.16
75192;BME280;63771;52.580;9.734;2022-12-18T06:25:27;102790.13;;;-9.09;90.19
75192;BME280;63771;52.580;9.734;2022-12-18T06:27:52;102798.78;;;-9.07;90.24
75192;BME280;63771;52.580;9.734;2022-12-18T06:30:17;102798.13;;;-9.06;90.33
75192;BME280;63771;52.580;9.734;2022-12-18T06:32:43;102790.09;;;-9.05;90.06
75192;BME280;63771;52.580;9.734;2022-12-18T06:35:08;102783.31;;;-9.06;90.47
75192;BME280;63771;52.580;9.734;2022-12-18T06:37:34;102791.59;;;-9.01;90.47
75192;BME280;63771;52.580;9.734;2022-12-18T06:39:59;102789.13;;;-9.01;90.56
75192;BME280;63771;52.580;9.734;2022-12-18T06:42:26;102795.28;;;-8.99;91.02
75192;BME280;63771;52.580;9.734;2022-12-18T06:44:51;102791.56;;;-8.97;90.84
75192;BME280;63771;52.580;9.734;2022-12-18T06:47:17;102796.16;;;-8.95;90.97
75192;BME280;63771;52.580;9.734;2022-12-18T06:49:43;102789.09;;;-8.97;90.78
75192;BME280;63771;52.580;9.734;2022-12-18T06:52:08;102786.25;;;-8.95;90.85
75192;BME280;63771;52.580;9.734;2022-12-18T06:54:33;102796.75;;;-8.91;90.83
75192;BME280;63771;52.580;9.734;2022-12-18T06:56:59;102794.84;;;-8.88;91.05
75192;BME280;63771;52.580;9.734;2022-12-18T06:59:24;102807.53;;;-8.87;90.65
75192;BME280;63771;52.580;9.734;2022-12-18T07:01:49;102808.44;;;-8.86;90.60
75192;BME280;63771;52.580;9.734;2022-12-18T07:04:15;102808.44;;;-8.86;90.72
75192;BME280;63771;52.580;9.734;2022-12-18T07:06:40;102810.28;;;-8.85;90.56
75192;BME280;63771;52.580;9.734;2022-12-18T07:09:06;102806.25;;;-8.85;90.53
75192;BME280;63771;52.580;9.734;2022-12-18T07:11:34;102811.19;;;-8.85;90.76
75192;BME280;63771;52.580;9.734;2022-12-18T07:13:59;102812.09;;;-8.84;90.70
75192;BME280;63771;52.580;9.734;2022-12-18T07:16:25;102820.16;;;-8.85;90.64
75192;BME280;63771;52.580;9.734;2022-12-18T07:18:54;102815.22;;;-8.85;90.58
75192;BME280;63771;52.580;9.734;2022-12-18T07:21:21;102827.22;;;-8.83;90.89
75192;BME280;63771;52.580;9.734;2022-12-18T07:23:47;102837.44;;;-8.81;90.56
75192;BME280;63771;52.580;9.734;2022-12-18T07:26:15;102839.31;;;-8.84;90.64
75192;BME280;63771;52.580;9.734;2022-12-18T07:28:42;102843.63;;;-8.83;90.72
75192;BME280;63771;52.580;9.734;2022-12-18T07:31:15;102820.59;;;-8.96;90.57
75192;BME280;63771;52.580;9.734;2022-12-18T07:33:41;102841.50;;;-8.86;90.10
75192;BME280;63771;52.580;9.734;2022-12-18T07:36:08;102839.03;;;-8.86;90.32
75192;BME280;63771;52.580;9.734;2022-12-18T07:38:34;102839.41;;;-8.92;90.14
75192;BME280;63771;52.580;9.734;2022-12-18T07:41:04;102845.19;;;-8.88;90.26
75192;BME280;63771;52.580;9.734;2022-12-18T07:43:30;102849.22;;;-8.88;90.03
75192;BME280;63771;52.580;9.734;2022-12-18T07:45:56;102860.38;;;-8.90;89.97
75192;BME280;63771;52.580;9.734;2022-12-18T07:48:21;102866.59;;;-8.92;89.53
75192;BME280;63771;52.580;9.734;2022-12-18T07:50:47;102861.66;;;-8.92;89.85
75192;BME280;63771;52.580;9.734;2022-12-18T07:53:12;102857.31;;;-8.94;89.90
75192;BME280;63771;52.580;9.734;2022-12-18T07:55:37;102858.56;;;-8.91;89.84
75192;BME280;63771;52.580;9.734;2022-12-18T07:58:03;102859.47;;;-8.91;90.11
75192;BME280;63771;52.580;9.734;2022-12-18T08:00:29;102848.66;;;-8.91;90.18
75192;BME280;63771;52.580;9.734;2022-12-18T08:02:55;102839.34;;;-8.88;90.02
75192;BME280;63771;52.580;9.734;2022-12-18T08:05:20;102842.44;;;-8.89;89.90
75192;BME280;63771;52.580;9.734;2022-12-18T08:07:46;102840.56;;;-8.86;89.99
75192;BME280;63771;52.580;9.734;2022-12-18T08:10:11;102844.25;;;-8.84;90.25
75192;BME280;63771;52.580;9.734;2022-12-18T08:12:37;102835.91;;;-8.85;90.10
75192;BME280;63771;52.580;9.734;2022-12-18T08:15:02;102837.13;;;-8.83;90.26
75192;BME280;63771;52.580;9.734;2022-12-18T08:17:28;102834.31;;;-8.80;90.04
75192;BME280;63771;52.580;9.734;2022-12-18T08:19:53;102839.25;;;-8.80;89.99
75192;BME280;63771;52.580;9.734;2022-12-18T08:22:18;102833.06;;;-8.78;89.99
75192;BME280;63771;52.580;9.734;2022-12-18T08:24:44;102833.38;;;-8.77;89.87
75192;BME280;63771;52.580;9.734;2022-12-18T08:27:10;102834.56;;;-8.75;90.22
75192;BME280;63771;52.580;9.734;2022-12-18T08:29:35;102831.13;;;-8.71;90.00
75192;BME280;63771;52.580;9.734;2022-12-18T08:32:00;102836.63;;;-8.68;90.12
75192;BME280;63771;52.580;9.734;2022-12-18T08:34:26;102830.78;;;-8.69;90.05
75192;BME280;63771;52.580;9.734;2022-12-18T08:36:51;102813.81;;;-8.71;90.18
75192;BME280;63771;52.580;9.734;2022-12-18T08:39:16;102818.59;;;-8.59;90.19
75192;BME280;63771;52.580;9.734;2022-12-18T08:41:42;102811.78;;;-8.56;90.26
75192;BME280;63771;52.580;9.734;2022-12-18T08:44:07;102812.63;;;-8.51;90.46
75192;BME280;63771;52.580;9.734;2022-12-18T08:46:51;102807.34;;;-8.49;90.29
75192;BME280;63771;52.580;9.734;2022-12-18T08:49:17;102793.41;;;-8.48;90.02
75192;BME280;63771;52.580;9.734;2022-12-18T08:51:43;102797.31;;;-8.41;90.43
75192;BME280;63771;52.580;9.734;2022-12-18T08:54:11;102798.19;;;-8.36;90.46
75192;BME280;63771;52.580;9.734;2022-12-18T08:56:38;102802.16;;;-8.32;90.19
75192;BME280;63771;52.580;9.734;2022-12-18T08:59:03;102804.56;;;-8.28;90.38
75192;BME280;63771;52.580;9.734;2022-12-18T09:01:29;102809.47;;;-8.24;90.24
75192;BME280;63771;52.580;9.734;2022-12-18T09:03:55;102806.31;;;-8.19;90.65
75192;BME280;63771;52.580;9.734;2022-12-18T09:06:21;102803.75;;;-8.15;90.36
75192;BME280;63771;52.580;9.734;2022-12-18T09:08:47;102806.75;;;-8.08;90.86
75192;BME280;63771;52.580;9.734;2022-12-18T09:13:45;102796.66;;;-7.96;90.66
75192;BME280;63771;52.580;9.734;2022-12-18T09:16:10;102784.44;;;-7.86;90.75
75192;BME280;63771;52.580;9.734;2022-12-18T09:18:36;102787.06;;;-7.76;91.10
75192;BME280;63771;52.580;9.734;2022-12-18T09:21:08;102785.38;;;-7.68;91.00
75192;BME280;63771;52.580;9.734;2022-12-18T09:23:33;102785.81;;;-7.56;90.92
75192;BME280;63771;52.580;9.734;2022-12-18T09:25:59;102791.53;;;-7.48;91.01
75192;BME280;63771;52.580;9.734;2022-12-18T09:28:25;102801.25;;;-7.36;90.89
75192;BME280;63771;52.580;9.734;2022-12-18T09:30:51;102792.09;;;-7.27;90.70
75192;BME280;63771;52.580;9.734;2022-12-18T09:33:17;102794.44;;;-7.19;90.79
75192;BME280;63771;52.580;9.734;2022-12-18T09:35:44;102791.78;;;-7.11;90.88
75192;BME280;63771;52.580;9.734;2022-12-18T09:38:12;102780.16;;;-7.02;90.70
75192;BME280;63771;52.580;9.734;2022-12-18T09:40:47;102780.28;;;-6.92;90.86
75192;BME280;63771;52.580;9.734;2022-12-18T09:43:37;102790.88;;;-6.79;90.77
75192;BME280;63771;52.580;9.734;2022-12-18T09:46:10;102792.56;;;-6.70;91.00
75192;BME280;63771;52.580;9.734;2022-12-18T09:48:42;102788.06;;;-6.63;90.74
75192;BME280;63771;52.580;9.734;2022-12-18T09:51:14;102796.84;;;-6.51;90.59
75192;BME280;63771;52.580;9.734;2022-12-18T09:53:44;102797.22;;;-6.40;90.35
75192;BME280;63771;52.580;9.734;2022-12-18T09:56:16;102797.41;;;-6.35;90.34
75192;BME280;63771;52.580;9.734;2022-12-18T09:59:00;102793.72;;;-6.23;90.04
75192;BME280;63771;52.580;9.734;2022-12-18T10:01:27;102802.81;;;-6.14;89.85
75192;BME280;63771;52.580;9.734;2022-12-18T10:03:53;102799.88;;;-6.07;89.88
75192;BME280;63771;52.580;9.734;2022-12-18T10:12:34;102805.44;;;-5.81;89.35
75192;BME280;63771;52.580;9.734;2022-12-18T10:15:46;102809.28;;;-5.73;89.00
75192;BME280;63771;52.580;9.734;2022-12-18T10:21:16;102810.72;;;-5.56;88.75
75192;BME280;63771;52.580;9.734;2022-12-18T10:23:52;102807.75;;;-5.49;88.71
75192;BME280;63771;52.580;9.734;2022-12-18T10:26:21;102801.13;;;-5.44;88.38
75192;BME280;63771;52.580;9.734;2022-12-18T10:28:47;102805.34;;;-5.39;88.16
75192;BME280;63771;52.580;9.734;2022-12-18T10:31:16;102798.94;;;-5.33;88.38
75192;BME280;63771;52.580;9.734;2022-12-18T10:33:42;102795.72;;;-5.28;88.13
75192;BME280;63771;52.580;9.734;2022-12-18T10:36:07;102788.72;;;-5.21;88.20
75192;BME280;63771;52.580;9.734;2022-12-18T10:38:33;102777.69;;;-5.17;87.85
75192;BME280;63771;52.580;9.734;2022-12-18T10:40:59;102783.66;;;-5.07;87.77
75192;BME280;63771;52.580;9.734;2022-12-18T10:43:37;102776.09;;;-5.03;87.77
75192;BME280;63771;52.580;9.734;2022-12-18T10:51:21;102778.66;;;-4.84;87.43
75192;BME280;63771;52.580;9.734;2022-12-18T10:53:54;102772.00;;;-4.79;87.33
75192;BME280;63771;52.580;9.734;2022-12-18T10:56:21;102772.16;;;-4.74;87.14
75192;BME280;63771;52.580;9.734;2022-12-18T10:59:02;102761.13;;;-4.70;87.22
75192;BME280;63771;52.580;9.734;2022-12-18T11:01:44;102743.59;;;-4.66;87.05
75192;BME280;63771;52.580;9.734;2022-12-18T11:04:16;102750.72;;;-4.54;86.04
75192;BME280;63771;52.580;9.734;2022-12-18T11:07:03;102749.00;;;-4.49;85.90
75192;BME280;63771;52.580;9.734;2022-12-18T11:09:31;102742.06;;;-4.46;85.91
75192;BME280;63771;52.580;9.734;2022-12-18T11:12:02;102752.81;;;-4.41;85.93
75192;BME280;63771;52.580;9.734;2022-12-18T11:16:56;102740.38;;;-4.32;85.52
75192;BME280;63771;52.580;9.734;2022-12-18T11:19:39;102749.44;;;-4.23;85.04
75192;BME280;63771;52.580;9.734;2022-12-18T11:22:28;102755.59;;;-4.21;85.21
75192;BME280;63771;52.580;9.734;2022-12-18T11:24:58;102754.56;;;-4.17;85.38
75192;BME280;63771;52.580;9.734;2022-12-18T11:27:24;102751.66;;;-4.14;85.44
75192;BME280;63771;52.580;9.734;2022-12-18T11:29:50;102757.69;;;-4.08;85.40
75192;BME280;63771;52.580;9.734;2022-12-18T11:32:39;102749.97;;;-4.00;84.86
75192;BME280;63771;52.580;9.734;2022-12-18T11:38:34;102754.56;;;-3.88;85.09
75192;BME280;63771;52.580;9.734;2022-12-18T11:43:47;102733.00;;;-3.68;84.54
75192;BME280;63771;52.580;9.734;2022-12-18T11:46:19;102718.69;;;-3.59;84.44
75192;BME280;63771;52.580;9.734;2022-12-18T11:48:55;102721.69;;;-3.56;84.62
75192;BME280;63771;52.580;9.734;2022-12-18T11:51:29;102710.00;;;-3.52;84.53
75192;BME280;63771;52.580;9.734;2022-12-18T11:53:57;102704.75;;;-3.44;84.03
75192;BME280;63771;52.580;9.734;2022-12-18T11:58:59;102678.28;;;-3.28;83.29
75192;BME280;63771;52.580;9.734;2022-12-18T12:16:08;102651.19;;;-2.96;82.25
75192;BME280;63771;52.580;9.734;2022-12-18T12:24:19;102631.47;;;-2.94;81.96
75192;BME280;63771;52.580;9.734;2022-12-18T12:29:50;102634.81;;;-2.84;80.53
75192;BME280;63771;52.580;9.734;2022-12-18T12:35:21;102635.97;;;-2.82;80.62
75192;BME280;63771;52.580;9.734;2022-12-18T12:38:28;102628.47;;;-2.82;80.41
75192;BME280;63771;52.580;9.734;2022-12-18T12:41:01;102633.66;;;-2.86;80.94
75192;BME280;63771;52.580;9.734;2022-12-18T12:43:38;102634.31;;;-2.87;80.69
75192;BME280;63771;52.580;9.734;2022-12-18T12:46:08;102624.34;;;-2.87;80.71
75192;BME280;63771;52.580;9.734;2022-12-18T12:49:11;102623.00;;;-2.85;80.16
75192;BME280;63771;52.580;9.734;2022-12-18T12:51:35;102620.34;;;-2.81;79.67
75192;BME280;63771;52.580;9.734;2022-12-18T12:54:03;102604.19;;;-2.83;79.93
75192;BME280;63771;52.580;9.734;2022-12-18T12:57:16;102598.69;;;-2.86;80.58
75192;BME280;63771;52.580;9.734;2022-12-18T12:59:57;102603.84;;;-2.90;80.56
75192;BME280;63771;52.580;9.734;2022-12-18T13:08:05;102592.72;;;-2.92;79.80
75192;BME280;63771;52.580;9.734;2022-12-18T13:10:36;102599.53;;;-2.91;79.15
75192;BME280;63771;52.580;9.734;2022-12-18T13:15:44;102608.66;;;-3.01;79.51
75192;BME280;63771;52.580;9.734;2022-12-18T13:23:39;102603.19;;;-3.14;80.10
75192;BME280;63771;52.580;9.734;2022-12-18T13:30:59;102607.09;;;-3.26;81.23
75192;BME280;63771;52.580;9.734;2022-12-18T13:35:53;102609.72;;;-3.30;80.98
75192;BME280;63771;52.580;9.734;2022-12-18T13:41:23;102598.34;;;-3.33;81.56
75192;BME280;63771;52.580;9.734;2022-12-18T13:43:54;102598.34;;;-3.33;81.66
75192;BME280;63771;52.580;9.734;2022-12-18T13:46:28;102602.16;;;-3.35;82.05
75192;BME280;63771;52.580;9.734;2022-12-18T13:49:00;102596.25;;;-3.36;82.27
75192;BME280;63771;52.580;9.734;2022-12-18T13:51:27;102592.16;;;-3.35;81.81
75192;BME280;63771;52.580;9.734;2022-12-18T13:54:02;102596.25;;;-3.36;81.40
75192;BME280;63771;52.580;9.734;2022-12-18T13:56:31;102588.75;;;-3.36;81.54
75192;BME280;63771;52.580;9.734;2022-12-18T14:01:42;102581.41;;;-3.40;81.46
75192;BME280;63771;52.580;9.734;2022-12-18T14:04:12;102578.59;;;-3.47;82.06
75192;BME280;63771;52.580;9.734;2022-12-18T14:06:42;102577.66;;;-3.48;82.30
75192;BME280;63771;52.580;9.734;2022-12-18T14:09:15;102572.44;;;-3.49;82.49
75192;BME280;63771;52.580;9.734;2022-12-18T14:11:47;102562.69;;;-3.48;81.84
75192;BME280;63771;52.580;9.734;2022-12-18T14:14:15;102568.84;;;-3.46;81.73
75192;BME280;63771;52.580;9.734;2022-12-18T14:16:41;102557.63;;;-3.53;82.07
75192;BME280;63771;52.580;9.734;2022-12-18T14:19:17;102561.03;;;-3.53;82.04
75192;BME280;63771;52.580;9.734;2022-12-18T14:21:47;102562.09;;;-3.56;82.15
75192;BME280;63771;52.580;9.734;2022-12-18T14:24:14;102555.41;;;-3.61;82.16
75192;BME280;63771;52.580;9.734;2022-12-18T14:26:40;102549.66;;;-3.66;82.55
75192;BME280;63771;52.580;9.734;2022-12-18T14:29:29;102554.41;;;-3.68;82.91
75192;BME280;63771;52.580;9.734;2022-12-18T14:32:12;102551.00;;;-3.68;83.05
75192;BME280;63771;52.580;9.734;2022-12-18T14:34:39;102540.25;;;-3.73;82.75
75192;BME280;63771;52.580;9.734;2022-12-18T14:37:05;102540.50;;;-3.71;82.61
75192;BME280;63771;52.580;9.734;2022-12-18T14:39:31;102532.53;;;-3.74;82.92